Time;durP1;ratioP1;P1;durP2;ratioP2;P2;SDS_P1;SDS_P2;PMS_P1;PMS_P2;Temp;Humidity;BMP_temperature;BMP_pressure;BME280_temperature;BME280_humidity;BME280_pressure;Samples;Min_cycle;Max_cycle;Signal;HPM_P1;HPM_P2
2022/12/31 00:00:39;;;;;;;10.03;8.10;;;11.80;99.90;;;;;;5092726;28;20441;-76
2022/12/31 00:03:09;;;;;;;8.60;7.70;;;11.90;99.90;;;;;;5058913;28;20461;-76
2022/12/31 00:05:37;;;;;;;8.97;8.07;;;11.90;99.90;;;;;;5076881;28;20985;-76
2022/12/31 00:08:05;;;;;;;8.90;7.97;;;11.90;99.90;;;;;;5077042;28;20794;-76
2022/12/31 00:10:40;;;;;;;8.30;7.50;;;11.90;99.90;;;;;;5076838;28;20446;-76
2022/12/31 00:13:08;;;;;;;9.90;9.03;;;11.90;99.90;;;;;;5092516;28;20433;-76
2022/12/31 00:15:38;;;;;;;8.83;7.93;;;11.90;99.90;;;;;;5076843;28;20472;-76
2022/12/31 00:18:07;;;;;;;9.60;8.70;;;11.90;99.90;;;;;;5092297;28;20444;-76
2022/12/31 00:20:40;;;;;;;8.40;7.60;;;11.90;99.90;;;;;;5092288;28;20481;-76
2022/12/31 00:23:09;;;;;;;9.50;8.50;;;11.90;99.90;;;;;;5076835;28;20409;-76
2022/12/31 00:25:37;;;;;;;10.47;9.47;;;11.90;99.90;;;;;;5058663;28;20469;-76
2022/12/31 00:28:06;;;;;;;9.00;8.20;;;12.00;99.90;;;;;;5058548;28;20444;-76
2022/12/31 00:30:34;;;;;;;9.83;8.50;;;12.00;99.90;;;;;;5076420;28;20851;-76
2022/12/31 00:33:04;;;;;;;8.30;7.50;;;12.00;99.90;;;;;;5092073;28;20498;-76
2022/12/31 00:35:33;;;;;;;10.03;9.10;;;12.00;99.90;;;;;;5076584;28;20823;-76
2022/12/31 00:38:01;;;;;;;9.77;8.87;;;12.00;99.90;;;;;;5076223;28;20933;-76
2022/12/31 00:40:29;;;;;;;9.40;7.87;;;12.00;99.90;;;;;;5058319;28;20445;-76
2022/12/31 00:42:57;;;;;;;9.40;8.50;;;12.00;99.90;;;;;;5058327;28;20468;-76
2022/12/31 00:45:26;;;;;;;10.47;9.13;;;12.00;99.90;;;;;;5091753;28;20572;-76
2022/12/31 00:47:54;;;;;;;10.70;9.47;;;11.90;99.90;;;;;;5058199;28;20445;-76
2022/12/31 00:50:23;;;;;;;9.50;8.60;;;11.90;99.90;;;;;;5058046;28;20461;-75
2022/12/31 00:52:51;;;;;;;10.23;9.30;;;11.90;99.90;;;;;;5058120;28;20814;-76
2022/12/31 00:55:19;;;;;;;10.83;9.63;;;11.90;99.90;;;;;;5076029;28;20503;-76
2022/12/31 00:57:47;;;;;;;9.27;8.23;;;11.90;99.90;;;;;;5058027;28;20449;-76
2022/12/31 01:00:16;;;;;;;11.23;9.83;;;11.90;99.90;;;;;;5076258;28;20945;-76
2022/12/31 01:02:45;;;;;;;11.30;9.73;;;11.90;99.90;;;;;;5075993;28;20429;-76
2022/12/31 01:05:13;;;;;;;11.70;10.50;;;11.90;99.90;;;;;;5057741;28;20484;-76
2022/12/31 01:07:42;;;;;;;12.20;10.23;;;11.90;99.90;;;;;;5057753;28;20449;-76
2022/12/31 01:10:11;;;;;;;11.50;9.60;;;12.00;99.90;;;;;;5075834;28;20440;-76
2022/12/31 01:12:39;;;;;;;9.83;8.83;;;12.00;99.90;;;;;;5075922;28;20615;-76
2022/12/31 01:15:08;;;;;;;8.90;8.00;;;11.90;99.90;;;;;;5076334;28;20461;-76
2022/12/31 01:17:36;;;;;;;10.93;9.60;;;11.90;99.90;;;;;;5075750;28;20459;-77
2022/12/31 01:20:06;;;;;;;11.00;9.90;;;11.90;99.90;;;;;;5057794;28;20454;-77
2022/12/31 01:22:34;;;;;;;12.60;9.60;;;11.90;99.90;;;;;;5075844;28;20922;-77
2022/12/31 01:25:04;;;;;;;9.97;9.07;;;12.00;99.90;;;;;;5057820;28;20487;-76
2022/12/31 01:27:32;;;;;;;10.30;9.00;;;11.90;99.90;;;;;;5057845;28;20540;-77
2022/12/31 01:30:01;;;;;;;10.83;9.93;;;11.90;99.90;;;;;;5057494;28;20971;-76
2022/12/31 01:32:29;;;;;;;9.90;8.93;;;11.90;99.90;;;;;;5075660;28;20465;-76
2022/12/31 01:34:57;;;;;;;10.50;9.40;;;11.90;99.90;;;;;;5075341;28;20445;-76
2022/12/31 01:37:25;;;;;;;9.93;8.50;;;12.00;99.90;;;;;;5057744;28;20859;-77
2022/12/31 01:39:53;;;;;;;9.77;8.77;;;12.00;99.90;;;;;;5075498;28;20473;-76
2022/12/31 01:42:22;;;;;;;10.70;9.20;;;12.00;99.90;;;;;;5057562;28;20445;-76
2022/12/31 01:44:54;;;;;;;12.50;9.00;;;12.00;99.90;;;;;;5075004;28;20469;-75
2022/12/31 01:47:33;;;;;;;9.47;8.60;;;11.90;99.90;;;;;;5057406;28;20444;-75
2022/12/31 01:50:06;;;;;;;10.40;9.30;;;12.00;99.90;;;;;;5075363;28;20890;-75
2022/12/31 01:52:37;;;;;;;9.43;8.43;;;12.00;99.90;;;;;;5057468;28;20529;-76
2022/12/31 01:55:10;;;;;;;11.83;8.73;;;12.00;99.90;;;;;;5075418;28;20815;-78
2022/12/31 01:57:39;;;;;;;11.10;8.83;;;12.00;99.90;;;;;;5057608;28;20445;-77
2022/12/31 02:00:09;;;;;;;13.97;9.17;;;12.00;99.90;;;;;;5057242;28;20456;-75
2022/12/31 02:02:38;;;;;;;10.03;8.23;;;12.00;99.90;;;;;;5075050;28;20442;-77
2022/12/31 02:05:13;;;;;;;9.60;8.70;;;12.00;99.90;;;;;;5057289;28;20485;-76
2022/12/31 02:07:42;;;;;;;10.10;9.10;;;12.10;99.90;;;;;;5057432;28;20468;-77
2022/12/31 02:10:10;;;;;;;10.50;9.23;;;12.00;99.90;;;;;;5075358;28;20445;-77
2022/12/31 02:12:40;;;;;;;9.70;8.63;;;12.00;99.90;;;;;;5089744;28;20445;-77
2022/12/31 02:15:09;;;;;;;10.30;9.13;;;12.00;99.90;;;;;;5074789;28;20453;-77
2022/12/31 02:17:43;;;;;;;9.83;8.60;;;12.00;99.90;;;;;;5074671;28;20441;-77
2022/12/31 02:20:41;;;;;;;10.07;9.07;;;12.10;99.90;;;;;;5056536;28;20448;-77
2022/12/31 02:23:48;;;;;;;9.17;8.30;;;12.10;99.90;;;;;;5056707;28;20532;-76
2022/12/31 02:26:42;;;;;;;9.77;8.87;;;12.10;99.90;;;;;;5074406;28;20477;-76
2022/12/31 02:29:58;;;;;;;8.63;7.83;;;12.10;99.90;;;;;;5053927;28;20457;-76
2022/12/31 02:32:36;;;;;;;8.57;7.77;;;12.10;99.90;;;;;;5031140;28;20445;-76
2022/12/31 02:35:09;;;;;;;8.03;7.33;;;12.20;99.90;;;;;;5075135;28;20475;-78
2022/12/31 02:37:40;;;;;;;8.40;7.60;;;12.10;99.90;;;;;;5056896;28;20441;-77
2022/12/31 02:40:13;;;;;;;8.77;7.93;;;12.20;99.90;;;;;;5076110;28;20429;-78
2022/12/31 02:42:41;;;;;;;8.70;7.83;;;12.20;99.90;;;;;;5062184;28;20536;-78
2022/12/31 02:45:13;;;;;;;9.47;8.00;;;12.10;99.90;;;;;;5079445;28;20481;-77
2022/12/31 02:47:54;;;;;;;9.13;7.97;;;12.20;99.90;;;;;;5078898;28;20514;-78
2022/12/31 02:50:36;;;;;;;9.10;8.20;;;12.20;99.90;;;;;;5056902;28;20495;-77
2022/12/31 02:53:20;;;;;;;7.73;6.93;;;12.20;99.90;;;;;;5074865;28;20417;-78
2022/12/31 02:55:53;;;;;;;8.33;7.60;;;12.20;99.90;;;;;;5058844;28;20469;-77
2022/12/31 03:02:12;;;;;;;7.80;7.00;;;12.20;99.90;;;;;;5056926;28;20433;-77
2022/12/31 03:07:01;;;;;;;6.97;6.33;;;12.20;99.90;;;;;;5068978;28;20523;-78
2022/12/31 03:09:29;;;;;;;6.50;5.70;;;12.20;99.90;;;;;;5062309;28;20441;-77
2022/12/31 03:14:43;;;;;;;6.07;5.47;;;12.20;99.90;;;;;;5079815;28;20425;-77
2022/12/31 03:17:11;;;;;;;6.40;5.23;;;12.20;99.90;;;;;;5061002;28;20449;-77
2022/12/31 03:22:29;;;;;;;6.30;5.27;;;12.20;99.90;;;;;;5076841;28;20426;-77
2022/12/31 03:27:48;;;;;;;5.57;5.03;;;12.20;99.90;;;;;;5057310;28;20444;-77
2022/12/31 03:30:18;;;;;;;5.40;4.73;;;12.20;99.90;;;;;;5073069;28;20483;-77
2022/12/31 03:32:48;;;;;;;4.30;3.87;;;12.20;99.90;;;;;;5074249;28;20443;-77
2022/12/31 03:35:20;;;;;;;4.40;3.70;;;12.20;99.90;;;;;;5055830;28;20891;-77
2022/12/31 03:37:49;;;;;;;4.07;3.33;;;12.20;99.90;;;;;;5073930;28;20433;-77
2022/12/31 03:40:19;;;;;;;5.17;3.00;;;12.20;99.90;;;;;;5055801;28;20449;-77
2022/12/31 03:42:47;;;;;;;4.00;2.70;;;12.20;99.90;;;;;;5073604;28;20966;-76
2022/12/31 03:45:16;;;;;;;3.80;2.43;;;12.20;99.90;;;;;;5055378;28;20485;-77
2022/12/31 03:47:44;;;;;;;3.90;1.90;;;12.10;99.90;;;;;;5055341;28;20485;-77
2022/12/31 03:50:14;;;;;;;3.67;1.83;;;12.10;99.90;;;;;;5055003;28;20453;-76
2022/12/31 03:52:44;;;;;;;3.10;1.70;;;12.10;99.90;;;;;;5055224;28;20547;-77
2022/12/31 03:55:12;;;;;;;4.27;2.30;;;12.10;99.90;;;;;;5073096;28;20445;-77
2022/12/31 03:57:41;;;;;;;2.70;1.53;;;12.10;99.90;;;;;;5055262;28;20812;-77
2022/12/31 04:00:13;;;;;;;2.67;1.37;;;12.10;99.90;;;;;;5073328;28;20441;-77
2022/12/31 04:02:41;;;;;;;3.80;1.80;;;12.00;99.90;;;;;;5055558;28;20544;-77
2022/12/31 04:05:10;;;;;;;2.70;1.57;;;12.00;99.90;;;;;;5055679;28;20483;-77
2022/12/31 04:07:39;;;;;;;4.00;1.60;;;12.00;99.90;;;;;;5055562;28;21064;-77
2022/12/31 04:10:11;;;;;;;2.70;1.50;;;12.00;99.90;;;;;;5055541;28;20454;-77
2022/12/31 04:12:40;;;;;;;3.00;1.40;;;12.00;99.90;;;;;;5055350;28;21079;-77
2022/12/31 04:15:11;;;;;;;2.80;1.57;;;11.90;99.90;;;;;;5055122;28;20467;-77
2022/12/31 04:17:39;;;;;;;3.47;1.40;;;11.90;99.90;;;;;;5055191;28;20475;-77
2022/12/31 04:20:08;;;;;;;3.20;1.40;;;11.90;99.90;;;;;;5055445;28;20981;-77
2022/12/31 04:22:37;;;;;;;3.10;1.30;;;11.90;99.90;;;;;;5055363;28;20449;-77
2022/12/31 04:25:09;;;;;;;2.60;1.37;;;11.90;99.90;;;;;;5055336;28;21005;-77
2022/12/31 04:27:42;;;;;;;3.23;2.07;;;11.90;99.90;;;;;;5073703;28;20427;-76
2022/12/31 04:30:12;;;;;;;3.80;2.20;;;11.90;99.90;;;;;;5056007;28;20866;-78
2022/12/31 04:32:40;;;;;;;2.60;1.30;;;11.80;99.90;;;;;;5055491;28;20449;-78
2022/12/31 04:35:10;;;;;;;2.93;1.37;;;11.80;99.90;;;;;;5055613;28;20806;-78
2022/12/31 04:37:38;;;;;;;3.20;1.60;;;11.80;99.90;;;;;;5059321;28;20470;-77
2022/12/31 04:40:08;;;;;;;3.47;1.37;;;11.80;99.90;;;;;;5059265;28;20976;-77
2022/12/31 04:42:36;;;;;;;3.33;1.23;;;11.80;99.90;;;;;;5059305;28;20897;-78
2022/12/31 04:45:07;;;;;;;4.40;1.90;;;11.80;99.90;;;;;;5076947;28;20472;-77
2022/12/31 04:47:36;;;;;;;2.30;1.00;;;11.80;99.90;;;;;;5077238;28;20520;-77
2022/12/31 04:50:05;;;;;;;4.37;1.50;;;11.80;99.90;;;;;;5077389;28;20524;-77
2022/12/31 04:52:33;;;;;;;2.63;1.20;;;11.70;99.90;;;;;;5058959;28;20445;-77
2022/12/31 04:55:09;;;;;;;2.70;1.20;;;11.80;99.90;;;;;;5058750;28;20514;-77
2022/12/31 04:57:37;;;;;;;3.17;1.60;;;11.70;99.90;;;;;;5058803;28;20479;-77
2022/12/31 05:00:08;;;;;;;3.33;1.50;;;11.70;99.90;;;;;;5058420;28;20930;-77
2022/12/31 05:02:36;;;;;;;2.87;1.50;;;11.70;99.90;;;;;;5058530;28;20480;-77
2022/12/31 05:05:06;;;;;;;4.23;1.60;;;11.70;99.90;;;;;;5058270;28;20565;-78
2022/12/31 05:07:34;;;;;;;3.57;1.50;;;11.70;99.90;;;;;;5058600;28;20457;-77
2022/12/31 05:10:02;;;;;;;5.47;1.30;;;11.60;99.90;;;;;;5076687;28;20433;-77
2022/12/31 05:12:30;;;;;;;2.57;1.20;;;11.60;99.90;;;;;;5058406;28;20943;-78
2022/12/31 05:14:58;;;;;;;3.30;1.87;;;11.70;99.90;;;;;;5076648;28;20440;-78
2022/12/31 05:17:27;;;;;;;4.83;3.33;;;11.60;99.90;;;;;;5076953;28;20437;-78
2022/12/31 05:19:56;;;;;;;3.13;1.70;;;11.60;99.90;;;;;;5058926;28;20437;-78
2022/12/31 05:22:29;;;;;;;3.07;1.80;;;11.60;99.90;;;;;;5058624;28;20553;-78
2022/12/31 05:24:59;;;;;;;3.27;1.80;;;11.60;99.90;;;;;;5058552;28;20441;-77
2022/12/31 05:27:30;;;;;;;3.40;2.00;;;11.60;99.90;;;;;;5076868;28;20465;-77
2022/12/31 05:29:59;;;;;;;3.20;2.20;;;11.60;99.90;;;;;;5076672;28;20426;-78
2022/12/31 05:32:28;;;;;;;4.10;2.03;;;11.60;99.90;;;;;;5076214;28;20539;-78
2022/12/31 05:34:58;;;;;;;3.20;2.00;;;11.60;99.90;;;;;;5057641;28;20449;-78
2022/12/31 05:37:28;;;;;;;3.80;2.13;;;11.50;99.90;;;;;;5058268;28;20441;-78
2022/12/31 05:39:56;;;;;;;4.63;2.10;;;11.60;99.90;;;;;;5057724;28;20449;-75
2022/12/31 05:42:25;;;;;;;2.90;1.53;;;11.50;99.90;;;;;;5057674;28;20820;-77
2022/12/31 05:44:53;;;;;;;3.47;2.03;;;11.50;99.90;;;;;;5076192;28;20440;-78
2022/12/31 05:47:21;;;;;;;3.20;1.80;;;11.50;99.90;;;;;;5056379;28;20508;-77
2022/12/31 05:49:51;;;;;;;4.23;2.20;;;11.50;99.90;;;;;;5075587;28;20425;-77
2022/12/31 05:52:20;;;;;;;3.80;2.40;;;11.50;99.90;;;;;;5075287;28;20417;-78
2022/12/31 05:54:48;;;;;;;4.03;2.27;;;11.60;99.90;;;;;;5057488;28;20971;-77
2022/12/31 05:57:16;;;;;;;4.90;2.30;;;11.50;99.90;;;;;;5057732;28;20473;-76
2022/12/31 05:59:44;;;;;;;4.20;2.50;;;11.50;99.90;;;;;;5075468;28;20435;-78
2022/12/31 06:02:12;;;;;;;3.97;2.40;;;11.50;99.90;;;;;;5075755;28;20457;-77
2022/12/31 06:04:41;;;;;;;6.73;4.50;;;11.50;99.90;;;;;;5091294;28;20448;-76
2022/12/31 06:07:10;;;;;;;4.73;3.43;;;11.50;99.90;;;;;;5090841;28;20992;-77
2022/12/31 06:09:38;;;;;;;4.97;3.70;;;11.50;99.90;;;;;;5057488;28;20886;-78
2022/12/31 06:12:07;;;;;;;4.90;3.50;;;11.50;99.90;;;;;;5075703;28;20794;-77
2022/12/31 06:14:35;;;;;;;4.83;3.60;;;11.50;99.90;;;;;;5057354;28;20449;-78
2022/12/31 06:17:12;;;;;;;4.13;3.20;;;11.50;99.90;;;;;;5075755;28;20452;-78
2022/12/31 06:19:40;;;;;;;4.10;3.60;;;11.50;99.90;;;;;;5075202;28;20437;-77
2022/12/31 06:22:10;;;;;;;4.33;3.47;;;11.50;99.90;;;;;;5057794;28;20453;-77
2022/12/31 06:24:38;;;;;;;5.33;3.60;;;11.50;99.90;;;;;;5075288;28;20448;-78
2022/12/31 06:27:06;;;;;;;4.70;3.70;;;11.50;99.90;;;;;;5056691;28;20480;-75
2022/12/31 06:29:34;;;;;;;5.47;4.10;;;11.40;99.90;;;;;;5074816;28;20488;-78
2022/12/31 06:32:02;;;;;;;5.30;3.83;;;11.50;99.90;;;;;;5056747;28;20540;-77
2022/12/31 06:34:31;;;;;;;5.00;3.97;;;11.50;99.90;;;;;;5056942;28;20460;-79
2022/12/31 06:36:59;;;;;;;4.90;4.30;;;11.50;99.90;;;;;;5056453;28;20491;-78
2022/12/31 06:39:29;;;;;;;4.47;3.93;;;11.40;99.90;;;;;;5075441;28;20445;-77
2022/12/31 06:41:57;;;;;;;5.67;4.20;;;11.40;99.90;;;;;;5056991;28;20441;-76
2022/12/31 06:44:25;;;;;;;5.20;4.70;;;11.40;99.90;;;;;;5057183;28;20480;-76
2022/12/31 06:46:53;;;;;;;5.10;4.23;;;11.40;99.90;;;;;;5056773;28;20473;-78
2022/12/31 06:49:21;;;;;;;8.90;4.53;;;11.40;99.90;;;;;;5075180;28;20437;-77
2022/12/31 06:51:49;;;;;;;5.43;4.33;;;11.40;99.90;;;;;;5056758;28;20908;-78
2022/12/31 06:54:19;;;;;;;5.50;4.77;;;11.40;99.90;;;;;;5057068;28;20817;-77
2022/12/31 06:56:49;;;;;;;5.90;4.60;;;11.40;99.90;;;;;;5074772;28;20457;-77
2022/12/31 06:59:26;;;;;;;6.60;5.27;;;11.40;99.90;;;;;;5074835;28;20487;-78
2022/12/31 07:02:11;;;;;;;5.53;4.70;;;11.40;99.90;;;;;;5056842;28;20970;-78
2022/12/31 07:05:01;;;;;;;6.67;5.47;;;11.50;99.90;;;;;;5056273;28;20442;-78
2022/12/31 07:07:34;;;;;;;5.10;4.57;;;11.40;99.90;;;;;;5074690;28;20492;-77
2022/12/31 07:10:12;;;;;;;7.70;5.23;;;11.40;99.90;;;;;;5056418;28;20472;-78
2022/12/31 07:12:57;;;;;;;6.33;5.20;;;11.40;99.90;;;;;;5074807;28;20501;-78
2022/12/31 07:15:43;;;;;;;5.97;4.67;;;11.40;99.90;;;;;;5074506;28;20464;-78
2022/12/31 07:18:26;;;;;;;6.13;5.50;;;11.40;99.90;;;;;;5056631;28;20445;-77
2022/12/31 07:20:55;;;;;;;7.97;6.57;;;11.40;99.90;;;;;;5056330;28;21180;-78
2022/12/31 07:23:23;;;;;;;6.60;5.77;;;11.40;99.90;;;;;;5056497;28;20441;-77
2022/12/31 07:25:59;;;;;;;8.20;6.50;;;11.40;99.90;;;;;;5056000;28;20479;-78
2022/12/31 07:28:46;;;;;;;7.77;6.47;;;11.40;99.90;;;;;;5054789;28;20464;-76
2022/12/31 07:31:24;;;;;;;9.50;7.20;;;11.50;99.90;;;;;;5074220;28;20418;-77
2022/12/31 07:33:58;;;;;;;8.67;7.40;;;11.50;99.90;;;;;;5056056;28;20449;-77
2022/12/31 07:36:45;;;;;;;9.10;8.20;;;11.40;99.90;;;;;;5074506;28;20464;-78
2022/12/31 07:39:19;;;;;;;7.87;7.03;;;11.50;99.90;;;;;;5055846;28;20452;-78
2022/12/31 07:41:54;;;;;;;7.93;7.13;;;11.40;99.90;;;;;;5074282;28;20490;-77
2022/12/31 07:44:44;;;;;;;9.53;8.53;;;11.50;99.90;;;;;;5056312;28;20448;-78
2022/12/31 07:47:23;;;;;;;10.80;8.20;;;11.40;99.90;;;;;;5074482;28;20453;-78
2022/12/31 07:49:52;;;;;;;9.77;7.83;;;11.40;99.90;;;;;;5089624;28;20452;-78
2022/12/31 07:52:21;;;;;;;10.27;8.73;;;11.40;99.90;;;;;;5056204;28;20448;-77
2022/12/31 07:54:50;;;;;;;11.80;8.70;;;11.40;99.90;;;;;;5056114;28;20964;-77
2022/12/31 07:57:19;;;;;;;9.70;8.70;;;11.40;99.90;;;;;;5072809;28;20445;-77
2022/12/31 08:00:01;;;;;;;11.03;9.87;;;11.40;99.90;;;;;;5056308;28;20437;-78
2022/12/31 08:03:01;;;;;;;10.07;9.03;;;11.40;99.90;;;;;;5074104;28;20456;-77
2022/12/31 08:05:34;;;;;;;9.63;8.63;;;11.40;99.90;;;;;;5089700;28;20469;-77
2022/12/31 08:08:13;;;;;;;9.43;7.87;;;11.40;99.90;;;;;;5074652;28;20484;-78
2022/12/31 08:10:51;;;;;;;11.93;8.77;;;11.40;99.90;;;;;;5078660;28;20444;-77
2022/12/31 08:13:19;;;;;;;10.60;8.73;;;11.50;99.90;;;;;;5064493;28;20451;-77
2022/12/31 08:15:49;;;;;;;8.80;7.60;;;11.50;99.90;;;;;;5063991;28;20829;-78
2022/12/31 08:18:18;;;;;;;9.23;7.90;;;11.50;99.90;;;;;;5067091;28;20495;-78
2022/12/31 08:20:55;;;;;;;9.53;8.60;;;11.50;99.90;;;;;;5088523;28;20436;-78
2022/12/31 08:23:29;;;;;;;9.93;8.93;;;11.50;99.90;;;;;;5093362;28;20425;-79
2022/12/31 08:26:10;;;;;;;10.07;9.07;;;11.50;99.90;;;;;;5074684;28;20483;-78
2022/12/31 08:28:53;;;;;;;9.00;7.33;;;11.50;99.90;;;;;;5076728;28;20484;-77
2022/12/31 08:31:28;;;;;;;8.73;7.77;;;11.50;99.90;;;;;;5058966;28;20517;-76
2022/12/31 08:34:06;;;;;;;8.17;7.30;;;11.50;99.90;;;;;;5073637;28;20433;-78
2022/12/31 08:36:45;;;;;;;8.90;7.03;;;11.50;99.90;;;;;;5044095;28;20462;-76
2022/12/31 08:39:26;;;;;;;7.67;6.87;;;11.60;99.90;;;;;;5058226;28;20426;-77
2022/12/31 08:41:56;;;;;;;7.50;6.80;;;11.60;99.90;;;;;;5040888;28;20438;-78
2022/12/31 08:44:34;;;;;;;8.90;7.10;;;11.60;99.90;;;;;;5040419;28;20448;-78
2022/12/31 08:47:12;;;;;;;8.20;6.40;;;11.60;99.90;;;;;;5040317;28;20623;-78
2022/12/31 08:49:41;;;;;;;10.27;7.63;;;11.60;99.90;;;;;;5057514;28;20856;-77
2022/12/31 08:52:16;;;;;;;7.40;6.60;;;11.60;99.90;;;;;;5061751;28;20901;-78
2022/12/31 08:54:44;;;;;;;7.77;6.70;;;11.60;99.90;;;;;;5046759;28;20457;-78
2022/12/31 08:57:20;;;;;;;8.00;7.07;;;11.60;99.90;;;;;;5045138;28;20811;-77
2022/12/31 09:00:02;;;;;;;7.80;6.73;;;11.70;99.90;;;;;;5042249;28;20529;-76
2022/12/31 09:02:55;;;;;;;7.80;7.00;;;11.70;99.90;;;;;;5044713;28;20446;-81
2022/12/31 09:05:28;;;;;;;9.33;8.27;;;11.70;99.90;;;;;;5041440;28;20470;-77
2022/12/31 09:08:07;;;;;;;8.63;7.73;;;11.70;99.90;;;;;;5055971;28;20464;-77
2022/12/31 09:10:44;;;;;;;7.80;6.40;;;11.70;99.90;;;;;;5039014;28;20484;-76
2022/12/31 09:13:21;;;;;;;7.20;6.50;;;11.70;99.90;;;;;;5056427;28;20787;-76
2022/12/31 09:15:58;;;;;;;9.83;8.93;;;11.80;99.90;;;;;;5056471;28;21006;-77
2022/12/31 09:18:30;;;;;;;60.23;55.37;;;11.80;99.90;;;;;;5038050;28;20448;-75
2022/12/31 09:21:00;;;;;;;8.47;7.67;;;11.80;99.90;;;;;;5037767;28;20466;-76
2022/12/31 09:23:29;;;;;;;8.03;7.00;;;11.80;99.90;;;;;;5039789;28;20441;-77
2022/12/31 09:26:05;;;;;;;7.47;6.17;;;11.90;99.90;;;;;;5040512;28;20466;-77
2022/12/31 09:28:42;;;;;;;7.47;6.30;;;11.80;99.90;;;;;;5038511;28;20533;-77
2022/12/31 09:31:16;;;;;;;8.73;6.40;;;11.90;99.90;;;;;;5043034;28;20545;-78
2022/12/31 09:33:54;;;;;;;6.90;6.17;;;11.90;99.90;;;;;;5039734;28;21051;-78
2022/12/31 09:36:30;;;;;;;5.57;4.93;;;11.90;99.90;;;;;;5038161;28;20958;-78
2022/12/31 09:39:05;;;;;;;7.43;6.27;;;11.90;99.90;;;;;;5037756;28;20442;-78
2022/12/31 09:42:11;;;;;;;5.70;5.00;;;12.00;99.90;;;;;;5038057;28;20452;-76
2022/12/31 09:45:19;;;;;;;6.20;5.40;;;12.00;99.90;;;;;;5037489;28;20452;-75
2022/12/31 09:48:28;;;;;;;5.07;4.57;;;12.00;99.90;;;;;;5037682;28;20446;-76
2022/12/31 09:51:12;;;;;;;5.50;4.90;;;12.10;99.90;;;;;;5038552;28;20454;-80
2022/12/31 09:54:22;;;;;;;5.30;4.80;;;12.10;99.90;;;;;;5039536;28;20453;-80
2022/12/31 09:57:14;;;;;;;5.90;5.10;;;12.20;99.90;;;;;;5018527;28;20521;-79
2022/12/31 09:59:51;;;;;;;4.90;4.40;;;12.20;99.90;;;;;;5039191;28;20446;-79
2022/12/31 10:02:29;;;;;;;4.93;4.40;;;12.20;99.90;;;;;;5039115;28;20548;-82
2022/12/31 10:05:12;;;;;;;4.47;3.80;;;12.30;99.90;;;;;;5056998;28;20430;-80
2022/12/31 10:07:50;;;;;;;4.10;3.20;;;12.30;99.90;;;;;;5038499;28;20473;-81
2022/12/31 10:10:23;;;;;;;4.13;2.97;;;12.40;99.90;;;;;;5056688;28;20418;-81
2022/12/31 10:13:07;;;;;;;3.87;2.93;;;12.40;99.90;;;;;;5038435;28;20823;-79
2022/12/31 10:16:00;;;;;;;4.33;3.13;;;12.40;99.90;;;;;;5038191;28;20465;-81
2022/12/31 10:18:46;;;;;;;3.40;2.63;;;12.50;99.90;;;;;;5056188;28;20868;-80
2022/12/31 10:21:32;;;;;;;3.67;3.10;;;12.50;99.90;;;;;;5056033;28;20759;-80
2022/12/31 10:24:22;;;;;;;3.60;2.60;;;12.50;99.90;;;;;;5037700;28;20446;-79
2022/12/31 10:27:07;;;;;;;3.20;2.40;;;12.60;99.90;;;;;;5037598;28;20470;-78
2022/12/31 10:29:45;;;;;;;3.13;2.20;;;12.60;99.90;;;;;;5054151;28;20494;-78
2022/12/31 10:32:20;;;;;;;4.00;2.77;;;12.70;99.90;;;;;;5037223;28;20433;-78
2022/12/31 10:35:00;;;;;;;2.97;2.03;;;12.70;99.90;;;;;;5036723;28;20807;-78
2022/12/31 10:37:34;;;;;;;3.40;2.50;;;12.70;99.90;;;;;;5037467;28;20923;-77
2022/12/31 10:40:18;;;;;;;3.20;2.40;;;12.80;99.90;;;;;;5037396;28;20912;-79
2022/12/31 10:43:21;;;;;;;3.00;2.27;;;12.80;99.90;;;;;;5037232;28;21016;-77
2022/12/31 10:46:36;;;;;;;3.27;2.30;;;12.90;99.90;;;;;;5036947;28;20474;-77
2022/12/31 10:49:32;;;;;;;3.40;2.27;;;12.90;99.90;;;;;;5037110;28;20470;-76
2022/12/31 10:52:37;;;;;;;4.20;1.87;;;12.90;99.90;;;;;;5036453;28;20449;-76
2022/12/31 10:55:55;;;;;;;2.90;1.80;;;13.00;99.90;;;;;;5036707;28;20561;-80
2022/12/31 10:58:54;;;;;;;3.20;2.30;;;13.00;99.90;;;;;;5036599;28;20458;-77
2022/12/31 11:01:33;;;;;;;3.07;1.67;;;13.00;99.90;;;;;;5036669;28;20856;-77
2022/12/31 11:04:45;;;;;;;2.80;1.50;;;13.00;99.90;;;;;;5036791;28;20473;-78
2022/12/31 11:07:32;;;;;;;3.83;1.90;;;13.00;99.90;;;;;;5054791;28;20430;-78
2022/12/31 11:10:32;;;;;;;3.60;1.30;;;13.10;99.90;;;;;;5036595;28;20472;-79
2022/12/31 11:13:39;;;;;;;2.90;1.70;;;13.10;99.90;;;;;;5036281;28;20445;-78
2022/12/31 11:16:31;;;;;;;2.50;1.50;;;13.10;99.90;;;;;;5036754;28;20469;-78
2022/12/31 11:19:06;;;;;;;3.13;1.60;;;13.10;99.90;;;;;;5036402;28;20855;-78
2022/12/31 11:21:48;;;;;;;3.00;1.60;;;13.10;99.90;;;;;;5037004;28;20441;-78
2022/12/31 11:24:28;;;;;;;2.67;1.30;;;13.20;99.90;;;;;;5054792;28;20434;-79
2022/12/31 11:27:10;;;;;;;3.50;1.63;;;13.20;99.90;;;;;;5053285;28;20556;-80
2022/12/31 11:30:03;;;;;;;3.10;1.50;;;13.20;99.90;;;;;;5054988;28;21010;-79
2022/12/31 11:32:45;;;;;;;2.63;1.33;;;13.20;99.90;;;;;;5055265;28;20545;-79
2022/12/31 11:35:31;;;;;;;3.33;1.90;;;13.30;99.90;;;;;;5055245;28;20494;-76
2022/12/31 11:38:15;;;;;;;3.90;1.90;;;13.30;99.90;;;;;;5042432;28;20951;-79
2022/12/31 11:40:59;;;;;;;3.00;2.00;;;13.30;99.90;;;;;;5054184;28;20438;-78
2022/12/31 11:43:34;;;;;;;2.83;1.73;;;13.30;99.90;;;;;;5037045;28;20441;-79
2022/12/31 11:46:27;;;;;;;2.97;2.13;;;13.30;99.90;;;;;;5057083;28;20532;-79
2022/12/31 11:49:24;;;;;;;3.60;2.10;;;13.30;99.90;;;;;;5041175;28;20449;-79
2022/12/31 11:52:23;;;;;;;3.00;2.17;;;13.40;99.90;;;;;;5058846;28;20536;-78
2022/12/31 11:55:18;;;;;;;3.30;2.20;;;13.40;99.90;;;;;;5059388;28;20917;-79
2022/12/31 11:57:49;;;;;;;2.90;2.07;;;13.40;99.90;;;;;;5041977;28;20466;-79
2022/12/31 12:00:20;;;;;;;4.43;2.60;;;13.50;99.90;;;;;;5060477;28;20427;-78
2022/12/31 12:02:52;;;;;;;3.47;2.33;;;13.50;99.90;;;;;;5042306;28;20504;-80
2022/12/31 12:05:24;;;;;;;4.00;2.77;;;13.50;99.90;;;;;;5044503;28;20488;-80
2022/12/31 12:07:54;;;;;;;4.20;2.80;;;13.50;99.90;;;;;;5041805;28;20510;-81
2022/12/31 12:10:25;;;;;;;3.27;2.57;;;13.60;99.90;;;;;;5059753;28;20477;-80
2022/12/31 12:13:12;;;;;;;3.37;2.70;;;13.60;99.90;;;;;;5040607;28;20471;-79
2022/12/31 12:15:47;;;;;;;5.13;3.00;;;13.60;99.90;;;;;;5039809;28;20480;-79
2022/12/31 12:18:29;;;;;;;5.00;2.80;;;13.60;99.90;;;;;;5040312;28;20815;-79
2022/12/31 12:21:08;;;;;;;4.07;2.50;;;13.70;99.90;;;;;;5040561;28;20444;-80
2022/12/31 12:23:37;;;;;;;4.03;2.70;;;13.60;99.90;;;;;;5040562;28;20476;-80
2022/12/31 12:26:05;;;;;;;5.17;3.70;;;13.70;99.90;;;;;;5046362;28;20478;-80
2022/12/31 12:28:44;;;;;;;4.00;2.60;;;13.70;99.90;;;;;;5065861;28;20448;-79
2022/12/31 12:31:20;;;;;;;5.13;3.40;;;13.70;99.90;;;;;;5073895;28;20946;-79
2022/12/31 12:33:51;;;;;;;5.53;4.30;;;13.70;99.90;;;;;;5053118;28;20501;-79
2022/12/31 12:36:21;;;;;;;6.97;4.93;;;13.80;99.90;;;;;;5050044;28;20476;-77
2022/12/31 12:39:01;;;;;;;4.83;4.17;;;13.70;99.90;;;;;;5068109;28;20509;-79
2022/12/31 12:41:29;;;;;;;5.17;4.47;;;13.80;99.90;;;;;;5048952;28;20550;-78
2022/12/31 12:44:06;;;;;;;7.00;5.73;;;13.70;99.90;;;;;;5065034;28;20429;-81
2022/12/31 12:46:39;;;;;;;6.10;4.60;;;13.80;99.90;;;;;;5043581;28;20614;-80
2022/12/31 12:49:22;;;;;;;9.20;6.23;;;13.80;99.90;;;;;;5061128;28;20453;-80
2022/12/31 12:52:08;;;;;;;5.27;4.77;;;13.80;99.90;;;;;;5041668;28;20825;-81
2022/12/31 12:54:58;;;;;;;5.10;4.37;;;13.80;99.90;;;;;;5041771;28;20468;-81
2022/12/31 12:57:33;;;;;;;5.03;3.97;;;13.80;99.90;;;;;;5039924;28;20442;-82
2022/12/31 13:00:16;;;;;;;5.67;3.90;;;13.80;99.90;;;;;;5040533;28;20911;-80
2022/12/31 13:03:15;;;;;;;6.57;3.67;;;13.80;99.90;;;;;;5041018;28;20446;-81
2022/12/31 13:05:56;;;;;;;4.30;3.60;;;13.80;99.90;;;;;;5058820;28;21045;-80
2022/12/31 13:08:36;;;;;;;4.20;3.40;;;13.90;99.90;;;;;;5040289;28;20963;-80
2022/12/31 13:11:24;;;;;;;6.57;4.77;;;13.90;99.90;;;;;;5042292;28;20462;-83
2022/12/31 13:14:03;;;;;;;5.30;4.00;;;13.90;99.90;;;;;;5042089;28;20444;-82
2022/12/31 13:16:40;;;;;;;9.73;7.40;;;13.90;99.90;;;;;;5040849;28;20477;-80
2022/12/31 13:19:16;;;;;;;4.70;3.70;;;13.90;99.90;;;;;;5058910;28;20414;-79
2022/12/31 13:21:54;;;;;;;5.60;4.10;;;14.00;99.90;;;;;;5042454;28;20496;-80
2022/12/31 13:24:29;;;;;;;6.23;4.27;;;14.00;99.90;;;;;;5043674;28;20438;-81
2022/12/31 13:27:08;;;;;;;5.03;3.40;;;14.10;99.90;;;;;;5043834;28;20479;-81
2022/12/31 13:29:41;;;;;;;6.83;3.90;;;14.10;99.90;;;;;;5061102;28;20428;-81
2022/12/31 13:32:16;;;;;;;5.93;3.23;;;14.10;99.90;;;;;;5039537;28;20827;-82
2022/12/31 13:34:49;;;;;;;6.17;5.47;;;14.10;99.90;;;;;;5041197;28;20445;-81
2022/12/31 13:37:27;;;;;;;5.30;4.47;;;14.10;99.90;;;;;;5059279;28;20414;-82
2022/12/31 13:40:01;;;;;;;5.27;4.10;;;14.10;99.90;;;;;;5039859;28;20957;-80
2022/12/31 13:42:39;;;;;;;7.00;3.53;;;14.10;99.90;;;;;;5039874;28;20927;-80